createdAt,value
2019-05-28T00:02:51.402Z,100.00
2019-05-28T00:06:00.667Z,100.00
2019-05-28T00:09:09.348Z,100.00
2019-05-28T00:12:18.536Z,100.00
2019-05-28T00:15:27.024Z,100.00
2019-05-28T00:18:34.938Z,100.00
2019-05-28T00:21:42.236Z,100.00
2019-05-28T00:24:49.555Z,100.00
2019-05-28T00:27:56.949Z,100.00
2019-05-28T00:31:04.358Z,100.00
2019-05-28T00:34:11.922Z,100.00
2019-05-28T00:37:19.711Z,100.00
2019-05-28T00:40:27.411Z,100.00
2019-05-28T00:43:35.000Z,100.00
2019-05-28T00:46:42.525Z,100.00
2019-05-28T00:49:50.014Z,100.00
2019-05-28T00:52:57.433Z,100.00
2019-05-28T00:56:05.815Z,100.00
2019-05-28T00:59:14.122Z,100.00
2019-05-28T01:02:21.536Z,100.00
2019-05-28T01:05:28.733Z,100.00
2019-05-28T01:08:36.311Z,100.00
2019-05-28T01:11:44.146Z,100.00
2019-05-28T01:14:51.587Z,100.00
2019-05-28T01:17:59.111Z,100.00
2019-05-28T01:21:06.529Z,100.00
2019-05-28T01:24:13.986Z,100.00
2019-05-28T01:27:22.139Z,100.00
2019-05-28T01:30:29.700Z,100.00
2019-05-28T01:33:36.933Z,100.00
2019-05-28T01:36:45.023Z,100.00
2019-05-28T01:39:52.374Z,100.00
2019-05-28T01:42:59.992Z,100.00
2019-05-28T01:46:07.800Z,100.00
2019-05-28T01:49:15.146Z,100.00
2019-05-28T01:52:23.407Z,100.00
2019-05-28T01:55:30.925Z,100.00
2019-05-28T01:58:38.398Z,100.00
2019-05-28T02:01:46.223Z,100.00
2019-05-28T02:04:54.263Z,100.00
2019-05-28T02:08:01.622Z,100.00
2019-05-28T02:11:09.059Z,100.00
2019-05-28T02:14:16.490Z,100.00
2019-05-28T02:17:23.914Z,100.00
2019-05-28T02:20:31.350Z,100.00
2019-05-28T02:23:38.766Z,100.00
2019-05-28T02:26:46.343Z,100.00
2019-05-28T02:29:53.899Z,100.00
2019-05-28T02:33:01.208Z,100.00
2019-05-28T02:36:08.869Z,100.00
2019-05-28T02:39:16.400Z,100.00
2019-05-28T02:42:23.920Z,100.00
2019-05-28T02:45:31.345Z,100.00
2019-05-28T02:48:39.051Z,100.00
2019-05-28T02:51:47.295Z,100.00
2019-05-28T02:54:55.250Z,100.00
2019-05-28T02:58:03.362Z,100.00
2019-05-28T03:01:10.906Z,100.00
2019-05-28T03:04:22.456Z,100.00
2019-05-28T03:07:32.730Z,100.00
2019-05-28T03:13:50.413Z,100.00
2019-05-28T03:17:02.771Z,100.00
2019-05-28T03:20:12.085Z,100.00
2019-05-28T03:23:20.087Z,100.00
2019-05-28T03:26:28.391Z,100.00
2019-05-28T03:29:36.215Z,100.00
2019-05-28T03:32:43.732Z,100.00
2019-05-28T03:35:55.298Z,100.00
2019-05-28T03:39:06.106Z,100.00
2019-05-28T03:42:15.799Z,100.00
2019-05-28T03:45:23.506Z,100.00
2019-05-28T03:48:30.970Z,100.00
2019-05-28T03:51:38.660Z,100.00
2019-05-28T03:54:46.438Z,100.00
2019-05-28T03:57:54.091Z,100.00
2019-05-28T04:01:01.830Z,100.00
2019-05-28T04:04:09.690Z,100.00
2019-05-28T04:07:17.657Z,100.00
2019-05-28T04:10:25.196Z,100.00
2019-05-28T04:13:33.153Z,100.00
2019-05-28T04:16:41.609Z,100.00
2019-05-28T04:19:49.919Z,100.00
2019-05-28T04:22:57.578Z,100.00
2019-05-28T04:26:05.129Z,100.00
2019-05-28T04:29:12.674Z,100.00
2019-05-28T04:32:20.190Z,100.00
2019-05-28T04:35:27.892Z,100.00
2019-05-28T04:38:35.272Z,100.00
2019-05-28T04:41:43.134Z,100.00
2019-05-28T04:44:51.071Z,100.00
2019-05-28T04:47:58.954Z,100.00
2019-05-28T04:51:06.367Z,100.00
2019-05-28T04:54:13.778Z,100.00
2019-05-28T04:57:21.390Z,100.00
2019-05-28T05:00:28.704Z,100.00
2019-05-28T05:03:36.598Z,100.00
2019-05-28T05:06:44.340Z,100.00
2019-05-28T05:09:51.989Z,100.00
2019-05-28T05:12:59.527Z,100.00
2019-05-28T05:16:07.278Z,100.00
2019-05-28T05:19:14.852Z,100.00
2019-05-28T05:22:22.723Z,100.00
2019-05-28T05:25:30.447Z,100.00
2019-05-28T05:28:38.906Z,100.00
2019-05-28T05:31:46.947Z,100.00
2019-05-28T05:34:54.604Z,100.00
2019-05-28T05:38:02.563Z,100.00
2019-05-28T05:41:10.117Z,100.00
2019-05-28T05:44:17.643Z,100.00
2019-05-28T05:47:26.094Z,100.00
2019-05-28T05:50:33.465Z,100.00
2019-05-28T05:53:41.243Z,100.00
2019-05-28T05:56:48.886Z,100.00
2019-05-28T05:59:56.291Z,100.00
2019-05-28T06:03:03.848Z,100.00
2019-05-28T06:06:11.482Z,100.00
2019-05-28T06:09:19.195Z,100.00
2019-05-28T06:12:26.759Z,100.00
2019-05-28T06:15:34.303Z,100.00
2019-05-28T06:18:41.634Z,100.00
2019-05-28T06:21:48.939Z,100.00
2019-05-28T06:24:56.909Z,100.00
2019-05-28T06:28:04.423Z,100.00
2019-05-28T06:31:12.362Z,100.00
2019-05-28T06:34:19.897Z,100.00
2019-05-28T06:37:27.259Z,100.00
2019-05-28T06:40:34.842Z,100.00
2019-05-28T06:43:42.842Z,100.00
2019-05-28T06:46:51.411Z,100.00
2019-05-28T06:49:59.025Z,100.00
2019-05-28T06:53:06.683Z,100.00
2019-05-28T06:56:14.257Z,100.00
2019-05-28T06:59:22.085Z,100.00
2019-05-28T07:02:30.136Z,100.00
2019-05-28T07:05:37.796Z,100.00
2019-05-28T07:08:46.299Z,100.00
2019-05-28T07:11:53.935Z,100.00
2019-05-28T07:15:01.992Z,100.00
2019-05-28T07:18:09.645Z,100.00
2019-05-28T07:21:17.531Z,100.00
2019-05-28T07:24:26.057Z,100.00
2019-05-28T07:27:33.978Z,100.00
2019-05-28T07:30:42.257Z,100.00
2019-05-28T07:33:50.178Z,100.00
2019-05-28T07:36:58.431Z,100.00
2019-05-28T07:40:06.585Z,100.00
2019-05-28T07:43:14.032Z,100.00
2019-05-28T07:46:22.159Z,100.00
2019-05-28T07:49:29.476Z,100.00
2019-05-28T07:52:38.524Z,100.00
2019-05-28T07:55:46.854Z,100.00
2019-05-28T07:58:54.969Z,100.00
2019-05-28T08:02:02.816Z,100.00
2019-05-28T08:05:16.666Z,100.00
2019-05-28T08:08:23.729Z,100.00
2019-05-28T08:11:31.364Z,100.00
2019-05-28T08:14:38.950Z,100.00
2019-05-28T08:17:47.750Z,100.00
2019-05-28T08:20:55.393Z,100.00
2019-05-28T08:24:04.370Z,100.00
2019-05-28T08:27:13.360Z,100.00
2019-05-28T08:30:24.521Z,98.11
2019-05-28T08:33:32.089Z,98.09
2019-05-28T08:36:39.516Z,99.62
2019-05-28T08:39:47.244Z,100.00
2019-05-28T08:42:54.889Z,100.00
2019-05-28T08:46:02.613Z,100.00
2019-05-28T08:49:10.530Z,100.00
2019-05-28T08:52:18.012Z,100.00
2019-05-28T08:55:25.917Z,100.00
2019-05-28T08:58:33.466Z,100.00
2019-05-28T09:01:41.005Z,100.00
2019-05-28T09:04:48.706Z,100.00
2019-05-28T09:07:56.074Z,100.00
2019-05-28T09:11:04.271Z,100.00
2019-05-28T09:14:11.572Z,100.00
2019-05-28T09:17:19.137Z,100.00
2019-05-28T09:20:27.064Z,100.00
2019-05-28T09:23:34.503Z,100.00
2019-05-28T09:26:42.038Z,100.00
2019-05-28T09:29:49.860Z,100.00
2019-05-28T09:32:58.177Z,100.00
2019-05-28T09:36:08.616Z,100.00
2019-05-28T09:39:15.096Z,100.00
2019-05-28T09:42:23.071Z,100.00
2019-05-28T09:45:30.615Z,100.00
2019-05-28T09:48:38.060Z,100.00
2019-05-28T09:51:45.524Z,100.00
2019-05-28T09:54:53.077Z,100.00
2019-05-28T09:58:00.408Z,100.00
2019-05-28T10:01:08.139Z,100.00
2019-05-28T10:04:15.880Z,100.00
2019-05-28T10:07:23.907Z,100.00
2019-05-28T10:10:31.688Z,100.00
2019-05-28T10:13:41.549Z,100.00
2019-05-28T10:16:48.460Z,100.00
2019-05-28T10:19:55.876Z,100.00
2019-05-28T10:23:03.385Z,100.00
2019-05-28T10:26:10.866Z,100.00
2019-05-28T10:29:18.485Z,100.00
2019-05-28T10:32:26.915Z,100.00
2019-05-28T10:35:34.441Z,100.00
2019-05-28T10:38:41.773Z,100.00
2019-05-28T10:41:49.599Z,100.00
2019-05-28T10:44:57.475Z,100.00
2019-05-28T10:48:05.025Z,100.00
2019-05-28T10:51:12.777Z,100.00
2019-05-28T10:54:20.578Z,100.00
2019-05-28T10:57:27.991Z,100.00
2019-05-28T11:00:35.606Z,100.00
2019-05-28T11:03:46.843Z,100.00
2019-05-28T11:06:52.828Z,100.00
2019-05-28T11:10:00.241Z,100.00
2019-05-28T11:13:07.614Z,100.00
2019-05-28T11:16:15.358Z,100.00
2019-05-28T11:19:22.703Z,100.00
2019-05-28T11:22:30.586Z,100.00
2019-05-28T11:25:38.005Z,100.00
2019-05-28T11:28:46.603Z,100.00
2019-05-28T11:31:54.221Z,100.00
2019-05-28T11:35:01.847Z,100.00
2019-05-28T11:38:09.261Z,100.00
2019-05-28T11:41:17.098Z,100.00
2019-05-28T11:44:24.675Z,100.00
2019-05-28T11:47:32.070Z,100.00
2019-05-28T11:50:39.595Z,100.00
2019-05-28T11:53:47.082Z,100.00
2019-05-28T11:56:54.905Z,100.00
2019-05-28T12:00:03.335Z,100.00
2019-05-28T12:03:11.345Z,100.00
2019-05-28T12:06:19.115Z,100.00
2019-05-28T12:09:26.724Z,100.00
2019-05-28T12:12:37.818Z,100.00
2019-05-28T12:15:45.225Z,100.00
2019-05-28T12:18:52.658Z,100.00
2019-05-28T12:22:00.104Z,100.00
2019-05-28T12:25:09.689Z,100.00
2019-05-28T12:28:36.069Z,100.00
2019-05-28T12:31:26.622Z,100.00
2019-05-28T12:34:34.493Z,100.00
2019-05-28T12:37:48.959Z,100.00
2019-05-28T12:40:51.813Z,100.00
2019-05-28T12:43:59.030Z,100.00
2019-05-28T12:47:06.298Z,100.00
2019-05-28T12:50:19.752Z,100.00
2019-05-28T12:53:24.209Z,100.00
2019-05-28T12:56:31.567Z,100.00
2019-05-28T12:59:38.800Z,100.00
2019-05-28T13:02:46.255Z,100.00
2019-05-28T13:05:54.029Z,100.00
2019-05-28T13:09:01.744Z,99.99
2019-05-28T13:12:09.382Z,97.63
2019-05-28T13:15:18.807Z,94.41
2019-05-28T13:18:26.690Z,95.04
2019-05-28T13:21:34.514Z,98.18
2019-05-28T13:24:41.722Z,99.94
2019-05-28T13:27:49.451Z,100.00
2019-05-28T13:30:57.137Z,99.83
2019-05-28T13:34:04.947Z,95.94
2019-05-28T13:37:12.509Z,96.59
2019-05-28T13:40:20.380Z,91.58
2019-05-28T13:43:27.802Z,95.38
2019-05-28T13:46:35.270Z,93.38
2019-05-28T13:49:42.844Z,94.63
2019-05-28T13:52:50.956Z,96.15
2019-05-28T13:55:58.404Z,97.44
2019-05-28T13:59:05.984Z,100.00
2019-05-28T14:02:13.400Z,100.00
2019-05-28T14:05:21.664Z,100.00
2019-05-28T14:08:44.592Z,100.00
2019-05-28T14:11:38.730Z,100.00
2019-05-28T14:14:46.653Z,100.00
2019-05-28T14:17:55.908Z,100.00
2019-05-28T14:21:07.343Z,100.00
2019-05-28T14:24:15.487Z,100.00
2019-05-28T14:27:23.408Z,100.00
2019-05-28T14:30:32.024Z,100.00
2019-05-28T14:33:40.337Z,100.00
2019-05-28T14:36:48.130Z,100.00
2019-05-28T14:39:55.572Z,100.00
2019-05-28T14:43:03.626Z,100.00
2019-05-28T14:46:11.545Z,100.00
2019-05-28T14:49:19.635Z,100.00
2019-05-28T14:52:27.403Z,100.00
2019-05-28T14:55:34.962Z,100.00
2019-05-28T14:58:43.426Z,100.00
2019-05-28T15:01:51.129Z,100.00
2019-05-28T15:04:58.584Z,100.00
2019-05-28T15:08:06.165Z,100.00
2019-05-28T15:11:13.974Z,100.00
2019-05-28T15:14:21.760Z,100.00
2019-05-28T15:17:29.684Z,100.00
2019-05-28T15:20:37.382Z,100.00
2019-05-28T15:23:44.958Z,100.00
2019-05-28T15:26:52.291Z,100.00
2019-05-28T15:30:00.457Z,100.00
2019-05-28T15:33:08.171Z,100.00
2019-05-28T15:36:15.727Z,100.00
2019-05-28T15:39:38.174Z,100.00
2019-05-28T15:42:32.259Z,100.00
2019-05-28T15:45:39.585Z,100.00
2019-05-28T15:48:47.199Z,100.00
2019-05-28T15:52:06.900Z,100.00
2019-05-28T15:55:05.206Z,100.00
2019-05-28T15:58:13.087Z,100.00
2019-05-28T16:01:20.949Z,100.00
2019-05-28T16:04:29.732Z,100.00
2019-05-28T16:07:37.515Z,100.00
2019-05-28T16:10:45.299Z,100.00
2019-05-28T16:13:53.204Z,100.00
2019-05-28T16:17:00.896Z,100.00
2019-05-28T16:20:09.711Z,100.00
2019-05-28T16:23:17.208Z,100.00
2019-05-28T16:26:24.773Z,100.00
2019-05-28T16:29:32.290Z,100.00
2019-05-28T16:32:40.484Z,100.00
2019-05-28T16:35:47.966Z,100.00
2019-05-28T16:38:55.378Z,100.00
2019-05-28T16:45:28.234Z,100.00
2019-05-28T16:48:35.715Z,100.00
2019-05-28T16:51:43.609Z,100.00
2019-05-28T16:54:51.820Z,100.00
2019-05-28T16:57:59.454Z,100.00
2019-05-28T17:01:21.746Z,100.00
2019-05-28T17:04:17.080Z,100.00
2019-05-28T17:07:24.807Z,100.00
2019-05-28T17:10:33.837Z,100.00
2019-05-28T17:13:47.637Z,100.00
2019-05-28T17:16:51.836Z,100.00
2019-05-28T17:20:00.383Z,100.00
2019-05-28T17:23:08.135Z,100.00
2019-05-28T17:26:16.057Z,100.00
2019-05-28T17:29:24.413Z,100.00
2019-05-28T17:32:32.123Z,100.00
2019-05-28T17:35:39.741Z,100.00
2019-05-28T17:38:48.149Z,100.00
2019-05-28T17:41:55.528Z,100.00
2019-05-28T17:45:04.600Z,100.00
2019-05-28T17:48:12.952Z,100.00
2019-05-28T17:51:20.646Z,100.00
2019-05-28T17:54:27.986Z,100.00
2019-05-28T17:57:35.714Z,100.00
2019-05-28T18:00:43.254Z,100.00
2019-05-28T18:03:51.485Z,100.00
2019-05-28T18:06:58.979Z,100.00
2019-05-28T18:10:07.013Z,100.00
2019-05-28T18:13:14.617Z,100.00
2019-05-28T18:16:22.223Z,100.00
2019-05-28T18:19:29.606Z,100.00
2019-05-28T18:22:37.806Z,100.00
2019-05-28T18:25:49.622Z,100.00
2019-05-28T18:28:57.080Z,100.00
2019-05-28T18:32:04.893Z,100.00
2019-05-28T18:35:13.518Z,100.00
2019-05-28T18:38:22.153Z,100.00
2019-05-28T18:41:29.932Z,100.00
2019-05-28T18:44:37.738Z,100.00
2019-05-28T18:47:45.178Z,100.00
2019-05-28T18:50:52.936Z,100.00
2019-05-28T18:54:00.745Z,100.00
2019-05-28T18:57:08.632Z,100.00
2019-05-28T19:00:18.269Z,100.00
2019-05-28T19:03:25.999Z,100.00
2019-05-28T19:06:33.729Z,100.00
2019-05-28T19:09:41.196Z,100.00
2019-05-28T19:12:48.639Z,100.00
2019-05-28T19:15:56.503Z,100.00
2019-05-28T19:19:04.047Z,100.00
2019-05-28T19:22:11.986Z,100.00
2019-05-28T19:25:20.090Z,100.00
2019-05-28T19:28:28.386Z,100.00
2019-05-28T19:31:36.430Z,100.00
2019-05-28T19:34:48.343Z,100.00
2019-05-28T19:37:55.678Z,100.00
2019-05-28T19:41:03.294Z,100.00
2019-05-28T19:44:10.834Z,100.00
2019-05-28T19:47:18.583Z,100.00
2019-05-28T19:50:26.089Z,100.00
2019-05-28T19:53:34.137Z,100.00
2019-05-28T19:56:42.161Z,100.00
2019-05-28T19:59:49.723Z,100.00
2019-05-28T20:02:57.731Z,100.00
2019-05-28T20:06:05.307Z,100.00
2019-05-28T20:09:13.326Z,100.00
2019-05-28T20:12:20.709Z,100.00
2019-05-28T20:15:29.095Z,100.00
2019-05-28T20:18:37.115Z,100.00
2019-05-28T20:21:45.430Z,100.00
2019-05-28T20:24:54.479Z,100.00
2019-05-28T20:28:02.405Z,100.00
2019-05-28T20:31:10.434Z,100.00
2019-05-28T20:34:18.472Z,100.00
2019-05-28T20:37:26.320Z,100.00
2019-05-28T20:40:33.832Z,100.00
2019-05-28T20:43:41.443Z,100.00
2019-05-28T20:46:49.003Z,100.00
2019-05-28T20:49:56.362Z,100.00
2019-05-28T20:53:04.165Z,100.00
2019-05-28T20:56:12.237Z,100.00
2019-05-28T20:59:19.791Z,100.00
2019-05-28T21:02:27.527Z,100.00
2019-05-28T21:05:34.905Z,100.00
2019-05-28T21:08:42.500Z,100.00
2019-05-28T21:11:50.441Z,100.00
2019-05-28T21:14:59.250Z,100.00
2019-05-28T21:18:07.028Z,100.00
2019-05-28T21:21:14.828Z,100.00
2019-05-28T21:24:22.311Z,100.00
2019-05-28T21:27:29.835Z,100.00
2019-05-28T21:30:38.181Z,100.00
2019-05-28T21:33:45.494Z,100.00
2019-05-28T21:36:53.169Z,100.00
2019-05-28T21:40:02.033Z,100.00
2019-05-28T21:43:10.189Z,100.00
2019-05-28T21:46:17.970Z,100.00
2019-05-28T21:49:25.391Z,100.00
2019-05-28T21:52:33.063Z,100.00
2019-05-28T21:55:40.958Z,100.00
2019-05-28T21:58:48.501Z,100.00
2019-05-28T22:01:56.140Z,100.00
2019-05-28T22:05:07.758Z,100.00
2019-05-28T22:08:13.929Z,100.00
2019-05-28T22:11:21.523Z,100.00
2019-05-28T22:14:29.036Z,100.00
2019-05-28T22:17:37.402Z,100.00
2019-05-28T22:20:45.003Z,100.00
2019-05-28T22:23:53.017Z,100.00
2019-05-28T22:27:00.815Z,100.00
2019-05-28T22:30:09.468Z,100.00
2019-05-28T22:33:17.435Z,100.00
2019-05-28T22:36:25.115Z,100.00
2019-05-28T22:39:32.814Z,100.00
2019-05-28T22:42:40.711Z,100.00
2019-05-28T22:45:48.252Z,100.00
2019-05-28T22:48:57.072Z,100.00
2019-05-28T22:52:05.952Z,100.00
2019-05-28T22:55:14.754Z,100.00
2019-05-28T22:58:22.415Z,100.00
2019-05-28T23:01:30.456Z,100.00
2019-05-28T23:04:38.471Z,100.00
2019-05-28T23:07:45.939Z,100.00
2019-05-28T23:10:56.768Z,100.00
2019-05-28T23:14:04.159Z,100.00
2019-05-28T23:17:11.753Z,100.00
2019-05-28T23:20:19.738Z,100.00
2019-05-28T23:23:27.251Z,100.00
2019-05-28T23:26:35.259Z,100.00
2019-05-28T23:29:45.220Z,100.00
2019-05-28T23:32:52.610Z,100.00
2019-05-28T23:36:00.524Z,100.00
2019-05-28T23:39:09.085Z,100.00
2019-05-28T23:42:16.554Z,100.00
2019-05-28T23:45:24.133Z,100.00
2019-05-28T23:48:31.556Z,100.00
2019-05-28T23:51:38.969Z,100.00
2019-05-28T23:54:46.268Z,100.00
2019-05-28T23:57:53.565Z,100.00
